createdAt,value
2023-01-09T00:02:15.831Z,164.88
2023-01-09T00:05:01.729Z,166.73
2023-01-09T00:07:47.671Z,155.43
2023-01-09T00:10:33.591Z,142.57
2023-01-09T00:13:19.673Z,130.90
2023-01-09T00:16:07.473Z,121.32
2023-01-09T00:18:53.938Z,126.63
2023-01-09T00:21:40.181Z,130.68
2023-01-09T00:24:26.066Z,136.32
2023-01-09T00:27:12.452Z,130.07
2023-01-09T00:29:58.656Z,109.85
2023-01-09T00:32:44.850Z,116.50
2023-01-09T00:35:30.788Z,113.25
2023-01-09T00:38:16.638Z,125.22
2023-01-09T00:41:03.406Z,134.60
2023-01-09T00:43:53.348Z,118.93
2023-01-09T00:46:42.765Z,127.57
2023-01-09T00:49:30.401Z,120.65
2023-01-09T00:52:16.509Z,120.18
2023-01-09T00:55:02.901Z,115.72
2023-01-09T00:57:49.075Z,119.13
2023-01-09T01:00:35.153Z,107.75
2023-01-09T01:03:21.113Z,108.35
2023-01-09T01:06:25.377Z,112.20
2023-01-09T01:09:11.435Z,111.78
2023-01-09T01:11:57.198Z,101.53
2023-01-09T01:14:43.231Z,105.32
2023-01-09T01:17:28.941Z,113.60
2023-01-09T01:20:17.813Z,110.70
2023-01-09T01:23:03.813Z,117.43
2023-01-09T01:25:49.577Z,116.88
2023-01-09T01:28:35.544Z,109.90
2023-01-09T01:31:21.361Z,114.80
2023-01-09T01:34:07.245Z,122.80
2023-01-09T01:36:53.151Z,152.77
2023-01-09T01:39:38.896Z,151.07
2023-01-09T01:42:24.822Z,144.02
2023-01-09T01:45:14.961Z,127.22
2023-01-09T01:48:11.623Z,126.07
2023-01-09T01:51:01.428Z,122.53
2023-01-09T01:53:50.532Z,115.70
2023-01-09T01:56:39.586Z,110.50
2023-01-09T01:59:29.308Z,116.75
2023-01-09T02:02:15.382Z,119.07
2023-01-09T02:05:02.091Z,135.05
2023-01-09T02:07:48.891Z,147.25
2023-01-09T02:10:35.746Z,144.15
2023-01-09T02:13:22.102Z,142.30
2023-01-09T02:16:14.434Z,157.07
2023-01-09T02:19:03.327Z,158.00
2023-01-09T02:22:34.302Z,161.98
2023-01-09T02:25:39.269Z,156.27
2023-01-09T02:28:37.428Z,156.98
2023-01-09T02:31:46.688Z,149.85
2023-01-09T02:35:02.046Z,154.38
2023-01-09T02:38:00.188Z,150.43
2023-01-09T02:41:01.642Z,150.63
2023-01-09T02:43:48.338Z,144.85
2023-01-09T02:46:34.272Z,150.98
2023-01-09T02:49:20.152Z,151.18
2023-01-09T02:52:24.105Z,151.88
2023-01-09T02:55:28.871Z,150.05
2023-01-09T02:58:20.602Z,153.25
2023-01-09T03:01:25.301Z,146.68
2023-01-09T03:04:32.519Z,194.80
2023-01-09T03:07:25.762Z,240.43
2023-01-09T03:10:18.145Z,256.88
2023-01-09T03:13:05.718Z,226.50
2023-01-09T03:15:54.225Z,187.88
2023-01-09T03:18:40.315Z,154.82
2023-01-09T03:21:27.142Z,163.70
2023-01-09T03:24:13.330Z,154.05
2023-01-09T03:26:59.268Z,147.27
2023-01-09T03:29:45.197Z,153.60
2023-01-09T03:32:31.119Z,161.65
2023-01-09T03:35:16.907Z,146.02
2023-01-09T03:38:02.713Z,161.32
2023-01-09T03:40:48.497Z,151.15
2023-01-09T03:43:34.985Z,147.32
2023-01-09T03:46:20.980Z,140.07
2023-01-09T03:49:07.023Z,136.40
2023-01-09T03:51:52.832Z,148.45
2023-01-09T03:54:39.413Z,140.43
2023-01-09T03:57:25.694Z,144.20
2023-01-09T04:00:12.482Z,131.25
2023-01-09T04:02:58.271Z,125.07
2023-01-09T04:05:45.283Z,127.28
2023-01-09T04:08:31.220Z,124.03
2023-01-09T04:11:18.277Z,125.05
2023-01-09T04:14:04.085Z,123.82
2023-01-09T04:16:50.062Z,111.15
2023-01-09T04:19:35.948Z,104.75
2023-01-09T04:22:21.632Z,110.28
2023-01-09T04:25:07.918Z,104.63
2023-01-09T04:27:53.739Z,93.68
2023-01-09T04:30:39.622Z,101.05
2023-01-09T04:33:25.489Z,97.15
2023-01-09T04:36:11.501Z,98.57
2023-01-09T04:38:57.557Z,106.63
2023-01-09T04:41:49.226Z,101.10
2023-01-09T04:44:35.623Z,105.68
2023-01-09T04:47:23.818Z,103.28
2023-01-09T04:50:11.230Z,89.05
2023-01-09T04:52:57.551Z,87.72
2023-01-09T04:55:43.358Z,91.45
2023-01-09T04:58:29.090Z,91.78
2023-01-09T05:01:15.023Z,84.60
2023-01-09T05:04:01.014Z,89.38
2023-01-09T05:06:47.097Z,81.70
2023-01-09T05:09:33.368Z,70.72
2023-01-09T05:12:19.164Z,57.67
2023-01-09T05:15:06.210Z,48.25
2023-01-09T05:17:52.028Z,50.53
2023-01-09T05:20:38.417Z,56.08
2023-01-09T05:23:24.308Z,61.35
2023-01-09T05:26:10.100Z,48.78
2023-01-09T05:28:56.570Z,58.88
2023-01-09T05:31:42.447Z,53.88
2023-01-09T05:34:28.537Z,55.90
2023-01-09T05:37:14.745Z,48.40
2023-01-09T05:40:00.472Z,48.63
2023-01-09T05:42:46.363Z,46.00
2023-01-09T05:45:32.366Z,49.83
2023-01-09T05:48:18.053Z,51.10
2023-01-09T05:51:04.121Z,53.72
2023-01-09T05:53:49.833Z,50.00
2023-01-09T05:56:35.660Z,47.13
2023-01-09T05:59:21.678Z,46.97
2023-01-09T06:02:07.594Z,48.85
2023-01-09T06:04:53.385Z,49.92
2023-01-09T06:07:40.864Z,46.30
2023-01-09T06:10:26.542Z,44.17
2023-01-09T06:13:12.277Z,43.13
2023-01-09T06:15:58.241Z,51.33
2023-01-09T06:18:43.898Z,44.85
2023-01-09T06:21:29.730Z,44.70
2023-01-09T06:24:15.574Z,46.50
2023-01-09T06:27:01.358Z,41.03
2023-01-09T06:29:47.539Z,43.40
2023-01-09T06:32:33.197Z,46.53
2023-01-09T06:35:20.671Z,38.05
2023-01-09T06:38:06.735Z,50.38
2023-01-09T06:40:52.582Z,53.67
2023-01-09T06:43:38.836Z,57.92
2023-01-09T06:46:25.056Z,53.08
2023-01-09T06:49:10.843Z,48.10
2023-01-09T06:51:56.665Z,53.50
2023-01-09T06:54:42.513Z,58.30
2023-01-09T06:57:28.723Z,58.85
2023-01-09T07:00:15.199Z,50.63
2023-01-09T07:03:01.373Z,50.78
2023-01-09T07:05:47.608Z,52.97
2023-01-09T07:08:34.405Z,47.38
2023-01-09T07:11:20.412Z,50.85
2023-01-09T07:14:06.625Z,49.80
2023-01-09T07:16:52.625Z,50.20
2023-01-09T07:19:38.399Z,45.15
2023-01-09T07:22:24.335Z,40.97
2023-01-09T07:25:10.330Z,45.78
2023-01-09T07:27:56.438Z,53.42
2023-01-09T07:30:42.406Z,52.80
2023-01-09T07:33:28.369Z,47.47
2023-01-09T07:36:14.585Z,52.55
2023-01-09T07:39:00.267Z,60.28
2023-01-09T07:41:46.495Z,56.85
2023-01-09T07:44:33.779Z,51.65
2023-01-09T07:47:19.650Z,50.30
2023-01-09T07:50:06.096Z,54.97
2023-01-09T07:52:52.007Z,56.85
2023-01-09T07:55:37.937Z,72.40
2023-01-09T07:58:23.910Z,50.60
2023-01-09T08:01:10.077Z,41.35
2023-01-09T08:03:56.256Z,48.03
2023-01-09T08:06:42.250Z,44.28
2023-01-09T08:09:28.059Z,37.97
2023-01-09T08:12:13.906Z,43.35
2023-01-09T08:14:59.928Z,39.95
2023-01-09T08:17:46.299Z,41.63
2023-01-09T08:20:32.408Z,35.53
2023-01-09T08:23:18.460Z,52.22
2023-01-09T08:26:04.813Z,45.72
2023-01-09T08:28:51.026Z,49.58
2023-01-09T08:31:37.022Z,39.15
2023-01-09T08:34:23.181Z,43.67
2023-01-09T08:37:09.151Z,50.55
2023-01-09T08:39:55.220Z,47.10
2023-01-09T08:43:00.263Z,40.92
2023-01-09T08:46:05.616Z,41.20
2023-01-09T08:48:51.798Z,46.88
2023-01-09T08:51:37.629Z,44.28
2023-01-09T08:54:23.625Z,46.50
2023-01-09T08:57:09.744Z,47.00
2023-01-09T08:59:55.581Z,49.08
2023-01-09T09:02:41.491Z,45.30
2023-01-09T09:05:28.909Z,40.00
2023-01-09T09:08:16.467Z,45.13
2023-01-09T09:11:02.350Z,39.33
2023-01-09T09:13:48.325Z,33.22
2023-01-09T09:16:34.030Z,33.55
2023-01-09T09:19:20.148Z,29.98
2023-01-09T09:22:06.240Z,34.97
2023-01-09T09:24:52.227Z,28.27
2023-01-09T09:27:38.226Z,43.13
2023-01-09T09:30:25.401Z,45.65
2023-01-09T09:33:11.600Z,45.35
2023-01-09T09:36:00.735Z,39.65
2023-01-09T09:38:46.640Z,36.53
2023-01-09T09:41:57.317Z,36.05
2023-01-09T09:45:22.568Z,32.22
2023-01-09T09:48:32.986Z,30.52
2023-01-09T09:51:47.235Z,38.25
2023-01-09T09:54:38.295Z,35.83
2023-01-09T09:57:31.988Z,30.48
2023-01-09T10:00:20.649Z,33.42
2023-01-09T10:03:11.379Z,37.72
2023-01-09T10:05:59.088Z,31.80
2023-01-09T10:09:18.272Z,36.22
2023-01-09T10:12:19.656Z,39.85
2023-01-09T10:15:50.874Z,46.45
2023-01-09T10:18:53.405Z,42.22
2023-01-09T10:21:48.429Z,40.38
2023-01-09T10:24:49.720Z,46.22
2023-01-09T10:27:40.516Z,37.92
2023-01-09T10:31:01.733Z,40.40
2023-01-09T10:33:57.009Z,34.85
2023-01-09T10:37:06.310Z,36.42
2023-01-09T10:39:59.119Z,37.47
2023-01-09T10:42:49.184Z,34.75
2023-01-09T10:45:41.521Z,40.55
2023-01-09T10:48:38.944Z,42.47
2023-01-09T10:51:29.360Z,50.17
2023-01-09T10:54:22.183Z,38.75
2023-01-09T10:57:14.561Z,41.67
2023-01-09T11:00:00.435Z,34.95
2023-01-09T11:02:46.881Z,36.17
2023-01-09T11:05:34.084Z,40.47
2023-01-09T11:08:22.522Z,52.42
2023-01-09T11:11:09.472Z,48.80
2023-01-09T11:14:12.893Z,52.67
2023-01-09T11:17:01.412Z,43.70
2023-01-09T11:20:13.578Z,47.58
2023-01-09T11:23:00.089Z,48.50
2023-01-09T11:25:56.460Z,46.72
2023-01-09T11:28:42.584Z,47.70
2023-01-09T11:31:29.727Z,33.28
2023-01-09T11:34:21.039Z,33.13
2023-01-09T11:37:09.282Z,34.25
2023-01-09T11:39:56.372Z,30.55
2023-01-09T11:43:01.130Z,32.47
2023-01-09T11:46:00.717Z,29.90
2023-01-09T11:48:56.948Z,26.33
2023-01-09T11:51:44.183Z,27.52
2023-01-09T11:54:33.093Z,26.48
2023-01-09T11:57:20.857Z,25.83
2023-01-09T12:00:25.523Z,28.83
2023-01-09T12:03:38.668Z,30.45
2023-01-09T12:06:29.265Z,28.25
2023-01-09T12:09:44.039Z,23.63
2023-01-09T12:12:31.421Z,20.30
2023-01-09T12:15:51.438Z,23.52
2023-01-09T12:18:58.454Z,29.45
2023-01-09T12:21:53.797Z,27.33
2023-01-09T12:25:03.744Z,27.50
2023-01-09T12:28:28.066Z,25.98
2023-01-09T12:31:31.429Z,24.00
2023-01-09T12:34:32.579Z,20.90
2023-01-09T12:38:05.286Z,27.13
2023-01-09T12:41:10.580Z,24.15
2023-01-09T12:44:27.356Z,22.92
2023-01-09T12:47:45.665Z,21.27
2023-01-09T12:50:57.849Z,22.92
2023-01-09T12:54:21.194Z,31.00
2023-01-09T13:00:39.583Z,24.05
2023-01-09T13:03:34.946Z,29.00
2023-01-09T13:06:23.557Z,21.52
2023-01-09T13:09:21.343Z,23.58
2023-01-09T13:12:21.890Z,21.10
2023-01-09T13:15:33.223Z,22.23
2023-01-09T13:18:22.178Z,21.48
2023-01-09T13:21:09.883Z,15.75
2023-01-09T13:24:27.647Z,21.95
2023-01-09T13:27:17.780Z,17.95
2023-01-09T13:30:21.121Z,18.70
2023-01-09T13:33:29.238Z,15.63
2023-01-09T13:36:30.502Z,21.15
2023-01-09T13:39:23.571Z,25.77
2023-01-09T13:42:36.494Z,16.73
2023-01-09T13:45:25.905Z,22.40
2023-01-09T13:48:14.101Z,28.95
2023-01-09T13:51:56.688Z,23.73
2023-01-09T13:54:52.254Z,20.77
2023-01-09T13:57:43.554Z,22.38
2023-01-09T14:00:29.298Z,29.45
2023-01-09T14:03:53.884Z,24.13
2023-01-09T14:06:39.729Z,23.55
2023-01-09T14:09:26.899Z,24.17
2023-01-09T14:12:13.634Z,19.95
2023-01-09T14:15:02.159Z,17.33
2023-01-09T14:17:50.260Z,18.35
2023-01-09T14:20:42.943Z,28.63
2023-01-09T14:26:46.122Z,18.48
2023-01-09T14:29:31.975Z,18.37
2023-01-09T14:32:21.048Z,22.85
2023-01-09T14:35:15.194Z,17.55
2023-01-09T14:38:19.590Z,28.33
2023-01-09T14:41:57.467Z,29.80
2023-01-09T14:44:43.189Z,27.13
2023-01-09T14:47:31.875Z,27.92
2023-01-09T14:50:19.502Z,30.58
2023-01-09T14:53:11.165Z,27.35
2023-01-09T14:56:06.730Z,27.20
2023-01-09T14:59:11.725Z,30.00
2023-01-09T15:01:59.445Z,30.13
2023-01-09T15:04:46.080Z,25.20
2023-01-09T15:07:40.444Z,23.35
2023-01-09T15:10:29.920Z,24.38
2023-01-09T15:13:20.194Z,21.08
2023-01-09T15:16:07.024Z,30.60
2023-01-09T15:18:55.891Z,31.48
2023-01-09T15:21:56.887Z,25.27
2023-01-09T15:24:43.108Z,25.73
2023-01-09T15:27:29.973Z,25.73
2023-01-09T15:30:20.943Z,25.70
2023-01-09T15:33:15.104Z,31.17
2023-01-09T15:36:03.488Z,23.27
2023-01-09T15:38:50.414Z,27.63
2023-01-09T15:41:55.545Z,27.27
2023-01-09T15:44:44.379Z,30.48
2023-01-09T15:47:32.739Z,29.10
2023-01-09T15:50:23.173Z,39.80
2023-01-09T15:53:16.482Z,42.28
2023-01-09T15:56:07.504Z,35.55
2023-01-09T15:58:54.477Z,40.15
2023-01-09T16:01:41.764Z,35.60
2023-01-09T16:04:27.899Z,33.88
2023-01-09T16:07:16.158Z,28.88
2023-01-09T16:10:02.304Z,26.95
2023-01-09T16:12:49.473Z,36.13
2023-01-09T16:15:36.118Z,30.67
2023-01-09T16:18:29.296Z,28.23
2023-01-09T16:21:38.855Z,30.48
2023-01-09T16:24:35.292Z,24.98
2023-01-09T16:27:31.097Z,29.70
2023-01-09T16:30:28.481Z,32.88
2023-01-09T16:33:27.025Z,31.33
2023-01-09T16:36:14.210Z,26.10
2023-01-09T16:39:01.537Z,29.65
2023-01-09T16:42:06.537Z,25.55
2023-01-09T16:44:52.161Z,30.85
2023-01-09T16:47:38.065Z,30.05
2023-01-09T16:50:25.145Z,27.20
2023-01-09T16:53:24.236Z,28.85
2023-01-09T16:56:30.451Z,27.45
2023-01-09T16:59:20.824Z,24.42
2023-01-09T17:02:17.851Z,28.42
2023-01-09T17:05:04.049Z,29.13
2023-01-09T17:07:50.109Z,23.98
2023-01-09T17:10:36.120Z,32.22
2023-01-09T17:13:22.263Z,26.45
2023-01-09T17:16:10.282Z,31.38
2023-01-09T17:18:56.550Z,25.90
2023-01-09T17:21:42.343Z,30.00
2023-01-09T17:24:46.800Z,27.10
2023-01-09T17:27:53.293Z,27.73
2023-01-09T17:30:39.311Z,25.23
2023-01-09T17:33:25.033Z,31.92
2023-01-09T17:36:32.136Z,26.55
2023-01-09T17:39:18.457Z,32.40
2023-01-09T17:42:04.281Z,32.13
2023-01-09T17:44:50.223Z,32.20
2023-01-09T17:47:36.056Z,34.53
2023-01-09T17:50:22.469Z,34.70
2023-01-09T17:53:08.508Z,31.00
2023-01-09T17:55:54.372Z,34.05
2023-01-09T17:58:40.171Z,33.63
2023-01-09T18:01:26.738Z,32.97
2023-01-09T18:04:12.983Z,35.97
2023-01-09T18:06:58.990Z,40.42
2023-01-09T18:09:45.511Z,40.65
2023-01-09T18:12:31.467Z,35.92
2023-01-09T18:15:17.632Z,39.60
2023-01-09T18:18:03.871Z,40.67
2023-01-09T18:20:51.226Z,35.35
2023-01-09T18:23:37.270Z,34.60
2023-01-09T18:26:23.595Z,35.95
2023-01-09T18:29:11.486Z,42.03
2023-01-09T18:31:58.134Z,39.33
2023-01-09T18:34:44.233Z,40.88
2023-01-09T18:37:30.027Z,42.75
2023-01-09T18:40:16.025Z,33.72
2023-01-09T18:43:05.030Z,30.52
2023-01-09T18:45:50.843Z,31.88
2023-01-09T18:48:36.913Z,37.25
2023-01-09T18:51:24.705Z,39.63
2023-01-09T18:54:13.181Z,40.53
2023-01-09T18:57:01.735Z,36.75
2023-01-09T18:59:48.085Z,39.22
2023-01-09T19:02:34.282Z,41.58
2023-01-09T19:05:20.296Z,37.88
2023-01-09T19:08:06.746Z,39.15
2023-01-09T19:10:53.631Z,39.92
2023-01-09T19:13:39.699Z,34.10
2023-01-09T19:16:25.871Z,36.70
2023-01-09T19:19:11.505Z,43.53
2023-01-09T19:21:57.778Z,47.13
2023-01-09T19:24:43.763Z,45.10
2023-01-09T19:27:30.503Z,36.92
2023-01-09T19:30:17.329Z,35.97
2023-01-09T19:33:03.786Z,41.38
2023-01-09T19:35:49.623Z,36.65
2023-01-09T19:38:35.817Z,33.97
2023-01-09T19:41:21.845Z,35.10
2023-01-09T19:44:08.349Z,32.72
2023-01-09T19:46:54.891Z,36.85
2023-01-09T19:49:40.773Z,35.78
2023-01-09T19:52:26.753Z,42.00
2023-01-09T19:55:15.450Z,37.00
2023-01-09T19:58:01.698Z,33.58
2023-01-09T20:00:47.565Z,36.83
2023-01-09T20:03:33.502Z,34.30
2023-01-09T20:06:24.188Z,35.63
2023-01-09T20:09:12.279Z,35.80
2023-01-09T20:11:58.437Z,31.65
2023-01-09T20:14:45.323Z,31.73
2023-01-09T20:17:32.932Z,32.40
2023-01-09T20:20:21.450Z,31.25
2023-01-09T20:23:07.611Z,31.65
2023-01-09T20:25:53.895Z,30.58
2023-01-09T20:28:39.903Z,38.63
2023-01-09T20:31:28.286Z,30.13
2023-01-09T20:34:15.034Z,31.25
2023-01-09T20:37:01.222Z,33.08
2023-01-09T20:39:47.548Z,29.77
2023-01-09T20:42:33.414Z,30.83
2023-01-09T20:45:19.553Z,28.98
2023-01-09T20:48:06.136Z,32.20
2023-01-09T20:50:52.287Z,29.55
2023-01-09T20:53:38.573Z,31.58
2023-01-09T20:56:28.531Z,33.63
2023-01-09T20:59:20.958Z,30.40
2023-01-09T21:04:53.407Z,31.75
2023-01-09T21:07:39.252Z,29.70
2023-01-09T21:10:25.127Z,30.60
2023-01-09T21:13:11.111Z,30.33
2023-01-09T21:16:07.699Z,28.05
2023-01-09T21:18:55.335Z,30.92
2023-01-09T21:21:41.534Z,31.85
2023-01-09T21:24:27.583Z,27.60
2023-01-09T21:27:14.015Z,29.33
2023-01-09T21:30:00.000Z,29.35
2023-01-09T21:32:46.095Z,28.20
2023-01-09T21:35:32.036Z,26.52
2023-01-09T21:38:17.925Z,29.90
2023-01-09T21:41:22.805Z,26.65
2023-01-09T21:44:30.564Z,28.15
2023-01-09T21:47:16.733Z,23.75
2023-01-09T21:50:02.738Z,21.83
2023-01-09T21:52:49.160Z,26.83
2023-01-09T21:55:35.637Z,22.63
2023-01-09T21:58:21.677Z,23.52
2023-01-09T22:01:07.627Z,23.98
2023-01-09T22:03:54.786Z,23.25
2023-01-09T22:06:41.008Z,22.45
2023-01-09T22:09:27.266Z,19.83
2023-01-09T22:12:13.700Z,19.88
2023-01-09T22:14:59.773Z,19.60
2023-01-09T22:17:45.794Z,18.83
2023-01-09T22:20:31.947Z,20.15
2023-01-09T22:23:18.268Z,22.10
2023-01-09T22:26:09.554Z,34.05
2023-01-09T22:28:58.686Z,17.70
2023-01-09T22:31:44.864Z,22.63
2023-01-09T22:34:30.990Z,17.30
2023-01-09T22:37:16.903Z,18.35
2023-01-09T22:40:02.665Z,16.83
2023-01-09T22:42:52.263Z,20.13
2023-01-09T22:45:38.527Z,19.55
2023-01-09T22:48:25.014Z,17.90
2023-01-09T22:51:14.881Z,17.38
2023-01-09T22:54:01.159Z,20.17
2023-01-09T22:56:50.289Z,16.25
2023-01-09T22:59:36.253Z,16.23
2023-01-09T23:02:22.112Z,18.10
2023-01-09T23:05:08.299Z,15.73
2023-01-09T23:07:54.503Z,19.55
2023-01-09T23:10:40.905Z,12.70
2023-01-09T23:13:27.360Z,15.63
2023-01-09T23:16:13.323Z,14.80
2023-01-09T23:18:59.041Z,17.08
2023-01-09T23:21:45.645Z,17.45
2023-01-09T23:24:32.342Z,17.17
2023-01-09T23:27:18.332Z,18.55
2023-01-09T23:30:04.517Z,15.80
2023-01-09T23:32:50.479Z,19.35
2023-01-09T23:35:36.301Z,15.10
2023-01-09T23:38:22.229Z,17.45
2023-01-09T23:41:08.565Z,17.02
2023-01-09T23:43:54.443Z,20.23
2023-01-09T23:46:40.212Z,16.83
2023-01-09T23:49:26.036Z,14.93
2023-01-09T23:52:12.228Z,16.60
2023-01-09T23:54:58.201Z,15.15
2023-01-09T23:57:44.227Z,14.80
